sensor_id;sensor_type;location;lat;lon;timestamp;pressure;altitude;pressure_sealevel;temperature
8362;BMP180;4218;48.326;14.304;2022-11-20T00:01:41;97858.00;;;0.60
8362;BMP180;4218;48.326;14.304;2022-11-20T00:04:08;97859.00;;;0.70
8362;BMP180;4218;48.326;14.304;2022-11-20T00:06:35;97862.00;;;0.70
8362;BMP180;4218;48.326;14.304;2022-11-20T00:09:00;97867.00;;;0.60
8362;BMP180;4218;48.326;14.304;2022-11-20T00:11:27;97854.00;;;0.70
8362;BMP180;4218;48.326;14.304;2022-11-20T00:13:55;97860.00;;;0.70
8362;BMP180;4218;48.326;14.304;2022-11-20T00:16:24;97868.00;;;0.60
8362;BMP180;4218;48.326;14.304;2022-11-20T00:18:50;97853.00;;;0.50
8362;BMP180;4218;48.326;14.304;2022-11-20T00:21:18;97862.00;;;0.50
8362;BMP180;4218;48.326;14.304;2022-11-20T00:23:44;97866.00;;;0.50
8362;BMP180;4218;48.326;14.304;2022-11-20T00:26:12;97857.00;;;0.50
8362;BMP180;4218;48.326;14.304;2022-11-20T00:28:38;97860.00;;;0.50
8362;BMP180;4218;48.326;14.304;2022-11-20T00:31:14;97858.00;;;0.70
8362;BMP180;4218;48.326;14.304;2022-11-20T00:33:41;97855.00;;;0.60
8362;BMP180;4218;48.326;14.304;2022-11-20T00:36:09;97858.00;;;0.60
8362;BMP180;4218;48.326;14.304;2022-11-20T00:38:35;97863.00;;;0.60
8362;BMP180;4218;48.326;14.304;2022-11-20T00:41:03;97869.00;;;0.50
8362;BMP180;4218;48.326;14.304;2022-11-20T00:43:29;97855.00;;;0.60
8362;BMP180;4218;48.326;14.304;2022-11-20T00:45:58;97870.00;;;0.50
8362;BMP180;4218;48.326;14.304;2022-11-20T00:48:24;97858.00;;;0.60
8362;BMP180;4218;48.326;14.304;2022-11-20T00:50:49;97866.00;;;0.70
8362;BMP180;4218;48.326;14.304;2022-11-20T00:53:15;97878.00;;;0.70
8362;BMP180;4218;48.326;14.304;2022-11-20T00:55:40;97868.00;;;0.50
8362;BMP180;4218;48.326;14.304;2022-11-20T00:58:06;97863.00;;;0.60
8362;BMP180;4218;48.326;14.304;2022-11-20T01:00:31;97856.00;;;0.70
8362;BMP180;4218;48.326;14.304;2022-11-20T01:02:56;97864.00;;;0.70
8362;BMP180;4218;48.326;14.304;2022-11-20T01:05:22;97874.00;;;0.70
8362;BMP180;4218;48.326;14.304;2022-11-20T01:07:47;97876.00;;;0.70
8362;BMP180;4218;48.326;14.304;2022-11-20T01:10:12;97877.00;;;0.60
8362;BMP180;4218;48.326;14.304;2022-11-20T01:12:38;97872.00;;;0.60
8362;BMP180;4218;48.326;14.304;2022-11-20T01:15:03;97870.00;;;0.70
8362;BMP180;4218;48.326;14.304;2022-11-20T01:17:31;97860.00;;;0.60
8362;BMP180;4218;48.326;14.304;2022-11-20T01:19:56;97869.00;;;0.60
8362;BMP180;4218;48.326;14.304;2022-11-20T01:22:22;97868.00;;;0.50
8362;BMP180;4218;48.326;14.304;2022-11-20T01:24:47;97871.00;;;0.60
8362;BMP180;4218;48.326;14.304;2022-11-20T01:27:12;97876.00;;;0.60
8362;BMP180;4218;48.326;14.304;2022-11-20T01:29:38;97882.00;;;0.60
8362;BMP180;4218;48.326;14.304;2022-11-20T01:32:03;97879.00;;;0.50
8362;BMP180;4218;48.326;14.304;2022-11-20T01:34:29;97880.00;;;0.60
8362;BMP180;4218;48.326;14.304;2022-11-20T01:36:54;97879.00;;;0.50
8362;BMP180;4218;48.326;14.304;2022-11-20T01:39:22;97884.00;;;0.60
8362;BMP180;4218;48.326;14.304;2022-11-20T01:41:49;97882.00;;;0.60
8362;BMP180;4218;48.326;14.304;2022-11-20T01:44:54;97876.00;;;0.50
8362;BMP180;4218;48.326;14.304;2022-11-20T01:47:34;97872.00;;;0.60
8362;BMP180;4218;48.326;14.304;2022-11-20T01:50:20;97873.00;;;0.60
8362;BMP180;4218;48.326;14.304;2022-11-20T01:52:55;97865.00;;;0.60
8362;BMP180;4218;48.326;14.304;2022-11-20T01:55:26;97878.00;;;0.70
8362;BMP180;4218;48.326;14.304;2022-11-20T01:57:54;97871.00;;;0.60
8362;BMP180;4218;48.326;14.304;2022-11-20T02:00:20;97874.00;;;0.60
8362;BMP180;4218;48.326;14.304;2022-11-20T02:02:51;97874.00;;;0.60
8362;BMP180;4218;48.326;14.304;2022-11-20T02:05:32;97870.00;;;0.60
8362;BMP180;4218;48.326;14.304;2022-11-20T02:07:59;97865.00;;;0.60
8362;BMP180;4218;48.326;14.304;2022-11-20T02:10:26;97857.00;;;0.60
8362;BMP180;4218;48.326;14.304;2022-11-20T02:12:52;97863.00;;;0.60
8362;BMP180;4218;48.326;14.304;2022-11-20T02:15:36;97864.00;;;0.60
8362;BMP180;4218;48.326;14.304;2022-11-20T02:18:02;97863.00;;;0.70
8362;BMP180;4218;48.326;14.304;2022-11-20T02:20:27;97864.00;;;0.60
8362;BMP180;4218;48.326;14.304;2022-11-20T02:22:57;97850.00;;;0.70
8362;BMP180;4218;48.326;14.304;2022-11-20T02:25:24;97854.00;;;0.60
8362;BMP180;4218;48.326;14.304;2022-11-20T02:27:52;97872.00;;;0.70
8362;BMP180;4218;48.326;14.304;2022-11-20T02:30:17;97872.00;;;0.60
8362;BMP180;4218;48.326;14.304;2022-11-20T02:32:43;97863.00;;;0.60
8362;BMP180;4218;48.326;14.304;2022-11-20T02:37:43;97860.00;;;0.60
8362;BMP180;4218;48.326;14.304;2022-11-20T02:40:08;97863.00;;;0.60
8362;BMP180;4218;48.326;14.304;2022-11-20T02:42:35;97859.00;;;0.60
8362;BMP180;4218;48.326;14.304;2022-11-20T02:45:01;97861.00;;;0.60
8362;BMP180;4218;48.326;14.304;2022-11-20T02:47:26;97851.00;;;0.60
8362;BMP180;4218;48.326;14.304;2022-11-20T02:49:51;97853.00;;;0.60
8362;BMP180;4218;48.326;14.304;2022-11-20T02:52:17;97847.00;;;0.60
8362;BMP180;4218;48.326;14.304;2022-11-20T02:54:42;97842.00;;;0.60
8362;BMP180;4218;48.326;14.304;2022-11-20T02:57:07;97841.00;;;0.60
8362;BMP180;4218;48.326;14.304;2022-11-20T02:59:33;97833.00;;;0.60
8362;BMP180;4218;48.326;14.304;2022-11-20T03:01:58;97841.00;;;0.60
8362;BMP180;4218;48.326;14.304;2022-11-20T03:04:23;97845.00;;;0.60
8362;BMP180;4218;48.326;14.304;2022-11-20T03:06:49;97845.00;;;0.70
8362;BMP180;4218;48.326;14.304;2022-11-20T03:09:14;97837.00;;;0.80
8362;BMP180;4218;48.326;14.304;2022-11-20T03:11:39;97845.00;;;0.70
8362;BMP180;4218;48.326;14.304;2022-11-20T03:14:05;97844.00;;;0.70
8362;BMP180;4218;48.326;14.304;2022-11-20T03:16:31;97851.00;;;0.60
8362;BMP180;4218;48.326;14.304;2022-11-20T03:18:57;97853.00;;;0.60
8362;BMP180;4218;48.326;14.304;2022-11-20T03:21:23;97852.00;;;0.60
8362;BMP180;4218;48.326;14.304;2022-11-20T03:23:48;97850.00;;;0.60
8362;BMP180;4218;48.326;14.304;2022-11-20T03:26:17;97866.00;;;0.60
8362;BMP180;4218;48.326;14.304;2022-11-20T03:28:55;97860.00;;;0.60
8362;BMP180;4218;48.326;14.304;2022-11-20T03:31:23;97880.00;;;0.60
8362;BMP180;4218;48.326;14.304;2022-11-20T03:33:49;97865.00;;;0.50
8362;BMP180;4218;48.326;14.304;2022-11-20T03:36:16;97878.00;;;0.60
8362;BMP180;4218;48.326;14.304;2022-11-20T03:38:42;97873.00;;;0.60
8362;BMP180;4218;48.326;14.304;2022-11-20T03:41:12;97861.00;;;0.50
8362;BMP180;4218;48.326;14.304;2022-11-20T03:43:38;97878.00;;;0.50
8362;BMP180;4218;48.326;14.304;2022-11-20T03:46:04;97872.00;;;0.60
8362;BMP180;4218;48.326;14.304;2022-11-20T03:48:30;97862.00;;;0.60
8362;BMP180;4218;48.326;14.304;2022-11-20T03:51:09;97876.00;;;0.60
8362;BMP180;4218;48.326;14.304;2022-11-20T03:53:35;97867.00;;;0.60
8362;BMP180;4218;48.326;14.304;2022-11-20T03:56:00;97866.00;;;0.60
8362;BMP180;4218;48.326;14.304;2022-11-20T03:58:25;97867.00;;;0.70
8362;BMP180;4218;48.326;14.304;2022-11-20T04:00:51;97866.00;;;0.70
8362;BMP180;4218;48.326;14.304;2022-11-20T04:03:16;97866.00;;;0.70
8362;BMP180;4218;48.326;14.304;2022-11-20T04:05:41;97868.00;;;0.80
8362;BMP180;4218;48.326;14.304;2022-11-20T04:08:07;97878.00;;;0.70
8362;BMP180;4218;48.326;14.304;2022-11-20T04:10:32;97882.00;;;0.80
8362;BMP180;4218;48.326;14.304;2022-11-20T04:12:57;97870.00;;;0.80
8362;BMP180;4218;48.326;14.304;2022-11-20T04:15:23;97887.00;;;0.80
8362;BMP180;4218;48.326;14.304;2022-11-20T04:17:48;97869.00;;;0.80
8362;BMP180;4218;48.326;14.304;2022-11-20T04:20:14;97880.00;;;0.80
8362;BMP180;4218;48.326;14.304;2022-11-20T04:22:39;97870.00;;;0.70
8362;BMP180;4218;48.326;14.304;2022-11-20T04:25:05;97874.00;;;0.80
8362;BMP180;4218;48.326;14.304;2022-11-20T04:27:30;97876.00;;;0.80
8362;BMP180;4218;48.326;14.304;2022-11-20T04:29:56;97875.00;;;0.70
8362;BMP180;4218;48.326;14.304;2022-11-20T04:32:21;97877.00;;;0.70
8362;BMP180;4218;48.326;14.304;2022-11-20T04:34:47;97869.00;;;0.70
8362;BMP180;4218;48.326;14.304;2022-11-20T04:37:12;97878.00;;;0.80
8362;BMP180;4218;48.326;14.304;2022-11-20T04:39:37;97873.00;;;0.70
8362;BMP180;4218;48.326;14.304;2022-11-20T04:42:03;97877.00;;;0.80
8362;BMP180;4218;48.326;14.304;2022-11-20T04:44:47;97874.00;;;0.80
8362;BMP180;4218;48.326;14.304;2022-11-20T04:47:12;97867.00;;;0.80
8362;BMP180;4218;48.326;14.304;2022-11-20T04:49:37;97876.00;;;0.90
8362;BMP180;4218;48.326;14.304;2022-11-20T04:52:03;97857.00;;;0.90
8362;BMP180;4218;48.326;14.304;2022-11-20T04:54:28;97858.00;;;0.90
8362;BMP180;4218;48.326;14.304;2022-11-20T04:56:53;97859.00;;;0.90
8362;BMP180;4218;48.326;14.304;2022-11-20T04:59:19;97863.00;;;0.90
8362;BMP180;4218;48.326;14.304;2022-11-20T05:01:44;97861.00;;;0.90
8362;BMP180;4218;48.326;14.304;2022-11-20T05:04:09;97858.00;;;0.90
8362;BMP180;4218;48.326;14.304;2022-11-20T05:06:35;97863.00;;;0.80
8362;BMP180;4218;48.326;14.304;2022-11-20T05:09:00;97859.00;;;0.80
8362;BMP180;4218;48.326;14.304;2022-11-20T05:11:26;97860.00;;;0.80
8362;BMP180;4218;48.326;14.304;2022-11-20T05:13:54;97865.00;;;0.80
8362;BMP180;4218;48.326;14.304;2022-11-20T05:16:23;97861.00;;;0.90
8362;BMP180;4218;48.326;14.304;2022-11-20T05:18:51;97853.00;;;0.90
8362;BMP180;4218;48.326;14.304;2022-11-20T05:21:17;97864.00;;;1.00
8362;BMP180;4218;48.326;14.304;2022-11-20T05:23:43;97861.00;;;1.00
8362;BMP180;4218;48.326;14.304;2022-11-20T05:26:14;97862.00;;;1.00
8362;BMP180;4218;48.326;14.304;2022-11-20T05:28:39;97854.00;;;1.00
8362;BMP180;4218;48.326;14.304;2022-11-20T05:31:16;97863.00;;;1.00
8362;BMP180;4218;48.326;14.304;2022-11-20T05:33:43;97852.00;;;0.90
8362;BMP180;4218;48.326;14.304;2022-11-20T05:36:10;97859.00;;;1.00
8362;BMP180;4218;48.326;14.304;2022-11-20T05:38:36;97865.00;;;1.10
8362;BMP180;4218;48.326;14.304;2022-11-20T05:43:37;97858.00;;;1.20
8362;BMP180;4218;48.326;14.304;2022-11-20T05:46:03;97860.00;;;1.20
8362;BMP180;4218;48.326;14.304;2022-11-20T05:48:30;97871.00;;;1.10
8362;BMP180;4218;48.326;14.304;2022-11-20T05:50:57;97861.00;;;1.20
8362;BMP180;4218;48.326;14.304;2022-11-20T05:53:23;97866.00;;;1.10
8362;BMP180;4218;48.326;14.304;2022-11-20T05:56:00;97878.00;;;1.20
8362;BMP180;4218;48.326;14.304;2022-11-20T05:58:26;97877.00;;;1.20
8362;BMP180;4218;48.326;14.304;2022-11-20T06:00:51;97872.00;;;1.20
8362;BMP180;4218;48.326;14.304;2022-11-20T06:03:17;97873.00;;;1.10
8362;BMP180;4218;48.326;14.304;2022-11-20T06:05:42;97865.00;;;1.10
8362;BMP180;4218;48.326;14.304;2022-11-20T06:08:08;97873.00;;;1.20
8362;BMP180;4218;48.326;14.304;2022-11-20T06:10:33;97876.00;;;1.10
8362;BMP180;4218;48.326;14.304;2022-11-20T06:12:58;97873.00;;;1.10
8362;BMP180;4218;48.326;14.304;2022-11-20T06:15:24;97878.00;;;1.20
8362;BMP180;4218;48.326;14.304;2022-11-20T06:17:53;97866.00;;;1.10
8362;BMP180;4218;48.326;14.304;2022-11-20T06:20:20;97880.00;;;1.20
8362;BMP180;4218;48.326;14.304;2022-11-20T06:22:45;97874.00;;;1.20
8362;BMP180;4218;48.326;14.304;2022-11-20T06:25:11;97869.00;;;1.10
8362;BMP180;4218;48.326;14.304;2022-11-20T06:27:37;97865.00;;;1.20
8362;BMP180;4218;48.326;14.304;2022-11-20T06:30:03;97875.00;;;1.10
8362;BMP180;4218;48.326;14.304;2022-11-20T06:32:28;97877.00;;;1.20
8362;BMP180;4218;48.326;14.304;2022-11-20T06:34:54;97893.00;;;1.20
8362;BMP180;4218;48.326;14.304;2022-11-20T06:37:19;97880.00;;;1.10
8362;BMP180;4218;48.326;14.304;2022-11-20T06:39:44;97872.00;;;1.10
8362;BMP180;4218;48.326;14.304;2022-11-20T06:42:10;97877.00;;;1.20
8362;BMP180;4218;48.326;14.304;2022-11-20T06:44:35;97884.00;;;1.10
8362;BMP180;4218;48.326;14.304;2022-11-20T06:47:00;97892.00;;;1.10
8362;BMP180;4218;48.326;14.304;2022-11-20T06:49:26;97891.00;;;1.20
8362;BMP180;4218;48.326;14.304;2022-11-20T06:51:51;97879.00;;;1.10
8362;BMP180;4218;48.326;14.304;2022-11-20T06:54:17;97884.00;;;1.20
8362;BMP180;4218;48.326;14.304;2022-11-20T06:56:49;97901.00;;;1.10
8362;BMP180;4218;48.326;14.304;2022-11-20T06:59:14;97899.00;;;1.20
8362;BMP180;4218;48.326;14.304;2022-11-20T07:01:41;97903.00;;;1.40
8362;BMP180;4218;48.326;14.304;2022-11-20T07:04:06;97906.00;;;1.30
8362;BMP180;4218;48.326;14.304;2022-11-20T07:06:32;97909.00;;;1.40
8362;BMP180;4218;48.326;14.304;2022-11-20T07:08:57;97909.00;;;1.40
8362;BMP180;4218;48.326;14.304;2022-11-20T07:11:23;97909.00;;;1.30
8362;BMP180;4218;48.326;14.304;2022-11-20T07:13:49;97918.00;;;1.20
8362;BMP180;4218;48.326;14.304;2022-11-20T07:16:14;97905.00;;;1.30
8362;BMP180;4218;48.326;14.304;2022-11-20T07:18:40;97915.00;;;1.20
8362;BMP180;4218;48.326;14.304;2022-11-20T07:21:08;97921.00;;;1.20
8362;BMP180;4218;48.326;14.304;2022-11-20T07:23:34;97915.00;;;1.20
8362;BMP180;4218;48.326;14.304;2022-11-20T07:26:07;97923.00;;;1.20
8362;BMP180;4218;48.326;14.304;2022-11-20T07:28:33;97924.00;;;1.20
8362;BMP180;4218;48.326;14.304;2022-11-20T07:30:58;97923.00;;;1.30
8362;BMP180;4218;48.326;14.304;2022-11-20T07:33:24;97913.00;;;1.30
8362;BMP180;4218;48.326;14.304;2022-11-20T07:35:49;97919.00;;;1.20
8362;BMP180;4218;48.326;14.304;2022-11-20T07:38:15;97927.00;;;1.30
8362;BMP180;4218;48.326;14.304;2022-11-20T07:40:40;97928.00;;;1.40
8362;BMP180;4218;48.326;14.304;2022-11-20T07:43:05;97921.00;;;1.40
8362;BMP180;4218;48.326;14.304;2022-11-20T07:45:31;97915.00;;;1.50
8362;BMP180;4218;48.326;14.304;2022-11-20T07:47:56;97917.00;;;1.50
8362;BMP180;4218;48.326;14.304;2022-11-20T07:50:22;97915.00;;;1.40
8362;BMP180;4218;48.326;14.304;2022-11-20T07:52:47;97927.00;;;1.50
8362;BMP180;4218;48.326;14.304;2022-11-20T07:55:13;97934.00;;;1.50
8362;BMP180;4218;48.326;14.304;2022-11-20T07:57:39;97942.00;;;1.60
8362;BMP180;4218;48.326;14.304;2022-11-20T08:00:06;97923.00;;;1.60
8362;BMP180;4218;48.326;14.304;2022-11-20T08:02:37;97922.00;;;1.60
8362;BMP180;4218;48.326;14.304;2022-11-20T08:05:04;97918.00;;;1.60
8362;BMP180;4218;48.326;14.304;2022-11-20T08:07:35;97937.00;;;1.60
8362;BMP180;4218;48.326;14.304;2022-11-20T08:10:00;97935.00;;;1.60
8362;BMP180;4218;48.326;14.304;2022-11-20T08:12:26;97917.00;;;1.70
8362;BMP180;4218;48.326;14.304;2022-11-20T08:15:10;97930.00;;;1.70
8362;BMP180;4218;48.326;14.304;2022-11-20T08:17:35;97924.00;;;1.60
8362;BMP180;4218;48.326;14.304;2022-11-20T08:20:00;97929.00;;;1.50
8362;BMP180;4218;48.326;14.304;2022-11-20T08:22:26;97936.00;;;1.50
8362;BMP180;4218;48.326;14.304;2022-11-20T08:24:51;97934.00;;;1.50
8362;BMP180;4218;48.326;14.304;2022-11-20T08:27:16;97936.00;;;1.60
8362;BMP180;4218;48.326;14.304;2022-11-20T08:29:42;97937.00;;;1.60
8362;BMP180;4218;48.326;14.304;2022-11-20T08:32:07;97935.00;;;1.70
8362;BMP180;4218;48.326;14.304;2022-11-20T08:34:32;97935.00;;;1.70
8362;BMP180;4218;48.326;14.304;2022-11-20T08:36:58;97954.00;;;1.70
8362;BMP180;4218;48.326;14.304;2022-11-20T08:39:24;97946.00;;;1.90
8362;BMP180;4218;48.326;14.304;2022-11-20T08:41:49;97941.00;;;1.70
8362;BMP180;4218;48.326;14.304;2022-11-20T08:44:14;97950.00;;;1.90
8362;BMP180;4218;48.326;14.304;2022-11-20T08:46:41;97946.00;;;1.80
8362;BMP180;4218;48.326;14.304;2022-11-20T08:49:15;97944.00;;;1.80
8362;BMP180;4218;48.326;14.304;2022-11-20T08:51:42;97956.00;;;1.90
8362;BMP180;4218;48.326;14.304;2022-11-20T08:54:08;97956.00;;;1.90
8362;BMP180;4218;48.326;14.304;2022-11-20T08:56:35;97938.00;;;1.90
8362;BMP180;4218;48.326;14.304;2022-11-20T08:59:00;97947.00;;;1.80
8362;BMP180;4218;48.326;14.304;2022-11-20T09:01:26;97932.00;;;1.90
8362;BMP180;4218;48.326;14.304;2022-11-20T09:03:52;97931.00;;;2.00
8362;BMP180;4218;48.326;14.304;2022-11-20T09:06:18;97945.00;;;1.80
8362;BMP180;4218;48.326;14.304;2022-11-20T09:08:43;97932.00;;;1.90
8362;BMP180;4218;48.326;14.304;2022-11-20T09:11:09;97926.00;;;1.90
8362;BMP180;4218;48.326;14.304;2022-11-20T09:13:35;97916.00;;;2.10
8362;BMP180;4218;48.326;14.304;2022-11-20T09:16:07;97933.00;;;2.20
8362;BMP180;4218;48.326;14.304;2022-11-20T09:18:34;97933.00;;;2.20
8362;BMP180;4218;48.326;14.304;2022-11-20T09:21:06;97928.00;;;2.40
8362;BMP180;4218;48.326;14.304;2022-11-20T09:23:33;97918.00;;;2.40
8362;BMP180;4218;48.326;14.304;2022-11-20T09:26:02;97918.00;;;2.60
8362;BMP180;4218;48.326;14.304;2022-11-20T09:28:27;97910.00;;;2.60
8362;BMP180;4218;48.326;14.304;2022-11-20T09:30:53;97918.00;;;2.60
8362;BMP180;4218;48.326;14.304;2022-11-20T09:33:18;97913.00;;;2.60
8362;BMP180;4218;48.326;14.304;2022-11-20T09:35:44;97914.00;;;2.70
8362;BMP180;4218;48.326;14.304;2022-11-20T09:38:12;97907.00;;;2.70
8362;BMP180;4218;48.326;14.304;2022-11-20T09:40:45;97912.00;;;2.90
8362;BMP180;4218;48.326;14.304;2022-11-20T09:43:25;97918.00;;;3.10
8362;BMP180;4218;48.326;14.304;2022-11-20T09:45:59;97904.00;;;3.30
8362;BMP180;4218;48.326;14.304;2022-11-20T09:51:37;97918.00;;;3.40
8362;BMP180;4218;48.326;14.304;2022-11-20T09:54:17;97910.00;;;3.30
8362;BMP180;4218;48.326;14.304;2022-11-20T09:56:59;97899.00;;;3.50
8362;BMP180;4218;48.326;14.304;2022-11-20T10:02:01;97913.00;;;3.60
8362;BMP180;4218;48.326;14.304;2022-11-20T10:04:29;97911.00;;;3.80
8362;BMP180;4218;48.326;14.304;2022-11-20T10:09:53;97895.00;;;3.70
8362;BMP180;4218;48.326;14.304;2022-11-20T10:13:02;97892.00;;;3.80
8362;BMP180;4218;48.326;14.304;2022-11-20T10:15:43;97889.00;;;4.10
8362;BMP180;4218;48.326;14.304;2022-11-20T10:26:43;97888.00;;;4.40
8362;BMP180;4218;48.326;14.304;2022-11-20T10:29:14;97891.00;;;4.50
8362;BMP180;4218;48.326;14.304;2022-11-20T10:31:46;97882.00;;;4.80
8362;BMP180;4218;48.326;14.304;2022-11-20T10:37:06;97892.00;;;4.60
8362;BMP180;4218;48.326;14.304;2022-11-20T10:39:55;97889.00;;;4.40
8362;BMP180;4218;48.326;14.304;2022-11-20T10:42:43;97885.00;;;4.50
8362;BMP180;4218;48.326;14.304;2022-11-20T10:47:45;97880.00;;;4.20
8362;BMP180;4218;48.326;14.304;2022-11-20T10:50:14;97878.00;;;4.20
8362;BMP180;4218;48.326;14.304;2022-11-20T10:52:54;97891.00;;;4.30
8362;BMP180;4218;48.326;14.304;2022-11-20T10:55:45;97883.00;;;4.60
8362;BMP180;4218;48.326;14.304;2022-11-20T11:01:06;97873.00;;;4.40
8362;BMP180;4218;48.326;14.304;2022-11-20T11:03:38;97881.00;;;4.70
8362;BMP180;4218;48.326;14.304;2022-11-20T11:06:29;97875.00;;;4.80
8362;BMP180;4218;48.326;14.304;2022-11-20T11:09:00;97869.00;;;5.00
8362;BMP180;4218;48.326;14.304;2022-11-20T11:11:33;97869.00;;;5.00
8362;BMP180;4218;48.326;14.304;2022-11-20T11:14:12;97871.00;;;5.10
8362;BMP180;4218;48.326;14.304;2022-11-20T11:16:54;97857.00;;;5.10
8362;BMP180;4218;48.326;14.304;2022-11-20T11:19:20;97865.00;;;5.00
8362;BMP180;4218;48.326;14.304;2022-11-20T11:21:55;97862.00;;;4.90
8362;BMP180;4218;48.326;14.304;2022-11-20T11:24:27;97851.00;;;4.80
8362;BMP180;4218;48.326;14.304;2022-11-20T11:27:01;97856.00;;;4.80
8362;BMP180;4218;48.326;14.304;2022-11-20T11:29:32;97862.00;;;4.80
8362;BMP180;4218;48.326;14.304;2022-11-20T11:32:11;97853.00;;;4.70
8362;BMP180;4218;48.326;14.304;2022-11-20T11:34:37;97858.00;;;4.80
8362;BMP180;4218;48.326;14.304;2022-11-20T11:37:04;97855.00;;;4.80
8362;BMP180;4218;48.326;14.304;2022-11-20T11:39:35;97849.00;;;4.70
8362;BMP180;4218;48.326;14.304;2022-11-20T11:42:00;97845.00;;;4.70
8362;BMP180;4218;48.326;14.304;2022-11-20T11:44:33;97846.00;;;4.70
8362;BMP180;4218;48.326;14.304;2022-11-20T11:52:55;97839.00;;;4.80
8362;BMP180;4218;48.326;14.304;2022-11-20T11:55:42;97835.00;;;4.80
8362;BMP180;4218;48.326;14.304;2022-11-20T12:00:58;97824.00;;;4.70
8362;BMP180;4218;48.326;14.304;2022-11-20T12:03:40;97825.00;;;4.70
8362;BMP180;4218;48.326;14.304;2022-11-20T12:06:15;97833.00;;;4.70
8362;BMP180;4218;48.326;14.304;2022-11-20T12:09:02;97829.00;;;4.70
8362;BMP180;4218;48.326;14.304;2022-11-20T12:16:35;97834.00;;;4.60
8362;BMP180;4218;48.326;14.304;2022-11-20T12:19:00;97832.00;;;4.50
8362;BMP180;4218;48.326;14.304;2022-11-20T12:21:46;97829.00;;;4.60
8362;BMP180;4218;48.326;14.304;2022-11-20T12:24:35;97828.00;;;4.60
8362;BMP180;4218;48.326;14.304;2022-11-20T12:30:11;97818.00;;;4.60
8362;BMP180;4218;48.326;14.304;2022-11-20T12:35:52;97827.00;;;4.90
8362;BMP180;4218;48.326;14.304;2022-11-20T12:47:52;97815.00;;;4.70
8362;BMP180;4218;48.326;14.304;2022-11-20T12:58:30;97799.00;;;5.00
8362;BMP180;4218;48.326;14.304;2022-11-20T13:03:43;97783.00;;;5.00
8362;BMP180;4218;48.326;14.304;2022-11-20T13:06:12;97785.00;;;5.10
8362;BMP180;4218;48.326;14.304;2022-11-20T13:08:40;97781.00;;;5.00
8362;BMP180;4218;48.326;14.304;2022-11-20T13:16:41;97792.00;;;4.90
8362;BMP180;4218;48.326;14.304;2022-11-20T13:19:12;97778.00;;;4.80
8362;BMP180;4218;48.326;14.304;2022-11-20T13:21:40;97790.00;;;4.70
8362;BMP180;4218;48.326;14.304;2022-11-20T13:26:44;97780.00;;;4.70
8362;BMP180;4218;48.326;14.304;2022-11-20T13:29:16;97773.00;;;4.60
8362;BMP180;4218;48.326;14.304;2022-11-20T13:31:45;97775.00;;;4.70
8362;BMP180;4218;48.326;14.304;2022-11-20T13:34:24;97774.00;;;4.70
8362;BMP180;4218;48.326;14.304;2022-11-20T13:36:56;97770.00;;;4.80
8362;BMP180;4218;48.326;14.304;2022-11-20T13:39:30;97758.00;;;4.90
8362;BMP180;4218;48.326;14.304;2022-11-20T13:42:00;97755.00;;;4.90
8362;BMP180;4218;48.326;14.304;2022-11-20T13:44:42;97771.00;;;4.90
8362;BMP180;4218;48.326;14.304;2022-11-20T13:47:24;97759.00;;;4.90
8362;BMP180;4218;48.326;14.304;2022-11-20T13:49:51;97752.00;;;5.00
8362;BMP180;4218;48.326;14.304;2022-11-20T13:55:02;97753.00;;;5.00
8362;BMP180;4218;48.326;14.304;2022-11-20T14:00:12;97753.00;;;4.90
8362;BMP180;4218;48.326;14.304;2022-11-20T14:02:38;97747.00;;;4.90
8362;BMP180;4218;48.326;14.304;2022-11-20T14:05:05;97756.00;;;4.90
8362;BMP180;4218;48.326;14.304;2022-11-20T14:07:41;97758.00;;;4.90
8362;BMP180;4218;48.326;14.304;2022-11-20T14:10:25;97752.00;;;4.80
8362;BMP180;4218;48.326;14.304;2022-11-20T14:12:51;97752.00;;;4.80
8362;BMP180;4218;48.326;14.304;2022-11-20T14:15:49;97756.00;;;4.80
8362;BMP180;4218;48.326;14.304;2022-11-20T14:18:21;97751.00;;;4.70
8362;BMP180;4218;48.326;14.304;2022-11-20T14:20:47;97748.00;;;4.80
8362;BMP180;4218;48.326;14.304;2022-11-20T14:23:23;97751.00;;;4.80
8362;BMP180;4218;48.326;14.304;2022-11-20T14:25:48;97736.00;;;4.80
8362;BMP180;4218;48.326;14.304;2022-11-20T14:28:24;97740.00;;;4.80
8362;BMP180;4218;48.326;14.304;2022-11-20T14:30:50;97740.00;;;4.80
8362;BMP180;4218;48.326;14.304;2022-11-20T14:33:16;97739.00;;;4.80
8362;BMP180;4218;48.326;14.304;2022-11-20T14:35:47;97750.00;;;4.80
8362;BMP180;4218;48.326;14.304;2022-11-20T14:38:15;97740.00;;;4.70
8362;BMP180;4218;48.326;14.304;2022-11-20T14:40:42;97747.00;;;4.70
8362;BMP180;4218;48.326;14.304;2022-11-20T14:43:34;97750.00;;;4.70
8362;BMP180;4218;48.326;14.304;2022-11-20T14:46:05;97760.00;;;4.70
8362;BMP180;4218;48.326;14.304;2022-11-20T14:48:48;97752.00;;;4.70
8362;BMP180;4218;48.326;14.304;2022-11-20T14:51:31;97755.00;;;4.80
8362;BMP180;4218;48.326;14.304;2022-11-20T14:54:08;97746.00;;;4.80
8362;BMP180;4218;48.326;14.304;2022-11-20T14:56:33;97744.00;;;4.80
8362;BMP180;4218;48.326;14.304;2022-11-20T14:58:59;97751.00;;;4.70
8362;BMP180;4218;48.326;14.304;2022-11-20T15:01:29;97762.00;;;4.80
8362;BMP180;4218;48.326;14.304;2022-11-20T15:04:12;97755.00;;;4.80
8362;BMP180;4218;48.326;14.304;2022-11-20T15:06:50;97752.00;;;4.70
8362;BMP180;4218;48.326;14.304;2022-11-20T15:09:15;97742.00;;;4.70
8362;BMP180;4218;48.326;14.304;2022-11-20T15:11:53;97747.00;;;4.70
8362;BMP180;4218;48.326;14.304;2022-11-20T15:14:19;97739.00;;;4.60
8362;BMP180;4218;48.326;14.304;2022-11-20T15:16:45;97743.00;;;4.60
8362;BMP180;4218;48.326;14.304;2022-11-20T15:19:18;97759.00;;;4.70
8362;BMP180;4218;48.326;14.304;2022-11-20T15:21:44;97747.00;;;4.60
8362;BMP180;4218;48.326;14.304;2022-11-20T15:24:09;97749.00;;;4.60
8362;BMP180;4218;48.326;14.304;2022-11-20T15:26:35;97740.00;;;4.60
8362;BMP180;4218;48.326;14.304;2022-11-20T15:29:02;97748.00;;;4.60
8362;BMP180;4218;48.326;14.304;2022-11-20T15:31:29;97741.00;;;4.60
8362;BMP180;4218;48.326;14.304;2022-11-20T15:33:54;97745.00;;;4.50
8362;BMP180;4218;48.326;14.304;2022-11-20T15:36:19;97738.00;;;4.50
8362;BMP180;4218;48.326;14.304;2022-11-20T15:38:45;97742.00;;;4.40
8362;BMP180;4218;48.326;14.304;2022-11-20T15:41:10;97747.00;;;4.50
8362;BMP180;4218;48.326;14.304;2022-11-20T15:43:36;97735.00;;;4.50
8362;BMP180;4218;48.326;14.304;2022-11-20T15:46:09;97736.00;;;4.50
8362;BMP180;4218;48.326;14.304;2022-11-20T15:48:44;97749.00;;;4.40
8362;BMP180;4218;48.326;14.304;2022-11-20T15:53:35;97750.00;;;4.50
8362;BMP180;4218;48.326;14.304;2022-11-20T15:56:02;97759.00;;;4.50
8362;BMP180;4218;48.326;14.304;2022-11-20T15:58:27;97758.00;;;4.50
8362;BMP180;4218;48.326;14.304;2022-11-20T16:00:53;97749.00;;;4.50
8362;BMP180;4218;48.326;14.304;2022-11-20T16:03:18;97754.00;;;4.50
8362;BMP180;4218;48.326;14.304;2022-11-20T16:05:44;97754.00;;;4.60
8362;BMP180;4218;48.326;14.304;2022-11-20T16:08:10;97758.00;;;4.50
8362;BMP180;4218;48.326;14.304;2022-11-20T16:10:35;97761.00;;;4.50